Time;durP1;ratioP1;P1;durP2;ratioP2;P2;SDS_P1;SDS_P2;PMS_P1;PMS_P2;Temp;Humidity;BMP_temperature;BMP_pressure;BME280_temperature;BME280_humidity;BME280_pressure;Samples;Min_cycle;Max_cycle;Signal;HPM_P1;HPM_P2
2023/07/27 00:02:01;;;;;;;3.45;2.90;;;;;;;12.11;100.00;100424.53;4950762;28;20054;-83
2023/07/27 00:04:28;;;;;;;3.70;2.85;;;;;;;12.08;100.00;100418.47;4939270;28;20035;-84
2023/07/27 00:06:55;;;;;;;3.53;3.03;;;;;;;12.06;100.00;100416.75;4932729;28;20141;-82
2023/07/27 00:09:21;;;;;;;4.97;2.92;;;;;;;12.10;100.00;100414.91;4945443;28;20473;-82
2023/07/27 00:11:49;;;;;;;6.88;3.78;;;;;;;12.12;100.00;100421.03;4944605;29;20643;-85
2023/07/27 00:14:16;;;;;;;5.15;3.53;;;;;;;12.11;100.00;100416.66;4940573;28;20058;-82
2023/07/27 00:16:42;;;;;;;6.00;4.22;;;;;;;12.12;100.00;100413.16;4933451;28;20053;-84
2023/07/27 00:19:09;;;;;;;3.80;3.20;;;;;;;12.07;100.00;100411.47;4941753;29;20038;-83
2023/07/27 00:21:35;;;;;;;5.18;3.35;;;;;;;12.04;100.00;100414.16;4937622;29;20043;-85
2023/07/27 00:24:02;;;;;;;5.97;3.45;;;;;;;12.04;100.00;100410.66;4955532;28;20047;-84
2023/07/27 00:26:28;;;;;;;3.15;2.88;;;;;;;11.99;100.00;100410.75;4951301;29;20046;-85
2023/07/27 00:28:55;;;;;;;4.70;2.90;;;;;;;11.95;100.00;100402.94;4953468;29;20069;-84
2023/07/27 00:31:21;;;;;;;3.90;3.00;;;;;;;11.90;100.00;100395.16;4934621;29;20043;-83
2023/07/27 00:33:48;;;;;;;6.15;4.45;;;;;;;11.85;100.00;100392.63;4946381;29;20039;-85
2023/07/27 00:36:14;;;;;;;4.00;3.08;;;;;;;11.81;100.00;100393.56;4937387;29;20046;-83
2023/07/27 00:38:41;;;;;;;4.97;3.58;;;;;;;11.82;100.00;100390.03;4942248;29;20047;-81
2023/07/27 00:41:08;;;;;;;3.20;2.80;;;;;;;11.86;100.00;100390.84;4941140;29;20050;-91
2023/07/27 00:43:34;;;;;;;6.15;3.92;;;;;;;11.85;100.00;100384.75;4940472;29;20130;-83
2023/07/27 00:46:01;;;;;;;5.88;3.97;;;;;;;11.80;100.00;100380.47;4953576;29;20062;-83
2023/07/27 00:48:29;;;;;;;4.65;3.38;;;;;;;11.79;100.00;100384.88;4952752;28;20043;-84
2023/07/27 00:50:56;;;;;;;6.65;3.72;;;;;;;11.75;100.00;100378.81;4942479;29;20494;-82
2023/07/27 00:53:23;;;;;;;5.63;3.95;;;;;;;11.73;100.00;100377.09;4938209;29;20058;-87
2023/07/27 00:55:51;;;;;;;8.40;4.45;;;;;;;11.72;100.00;100375.38;4948797;28;20050;-82
2023/07/27 00:58:18;;;;;;;8.15;6.72;;;;;;;11.70;100.00;100366.69;4953857;29;20070;-82
2023/07/27 01:00:44;;;;;;;5.75;5.15;;;;;;;11.70;100.00;100364.06;4949920;29;20086;-83
2023/07/27 01:03:11;;;;;;;9.75;6.47;;;;;;;11.64;100.00;100370.28;4953495;29;20107;-83
2023/07/27 01:05:38;;;;;;;8.68;6.05;;;;;;;11.68;100.00;100361.47;4935248;29;20051;-83
2023/07/27 01:08:05;;;;;;;7.35;6.05;;;;;;;11.64;100.00;100356.28;4949899;29;20043;-82
2023/07/27 01:10:53;;;;;;;9.80;5.80;;;;;;;11.61;100.00;100357.22;4939957;29;20043;-84
2023/07/27 01:13:45;;;;;;;6.82;4.95;;;;;;;11.59;100.00;100354.63;4955968;28;20045;-83
2023/07/27 01:16:20;;;;;;;7.50;4.53;;;;;;;11.54;100.00;100353.84;4959933;28;20047;-84
2023/07/27 01:19:28;;;;;;;4.97;4.38;;;;;;;11.52;100.00;100341.66;4943568;28;20051;-90
2023/07/27 01:22:38;;;;;;;4.85;4.25;;;;;;;11.49;100.00;100342.56;4928650;29;20036;-82
2023/07/27 01:25:57;;;;;;;6.97;4.28;;;;;;;11.47;100.00;100341.75;4933195;29;20055;-83
2023/07/27 01:29:28;;;;;;;5.45;4.22;;;;;;;11.47;100.00;100336.50;4816414;29;20120;-82
2023/07/27 01:31:55;;;;;;;4.43;3.72;;;;;;;11.49;100.00;100336.47;4774313;29;20484;-82
2023/07/27 01:34:27;;;;;;;4.45;3.78;;;;;;;11.48;100.00;100334.75;4879369;29;20045;-82
2023/07/27 01:37:00;;;;;;;4.78;4.38;;;;;;;11.48;100.00;100330.34;4928515;28;20048;-85
2023/07/27 01:39:30;;;;;;;11.18;5.30;;;;;;;11.46;100.00;100324.28;4941488;29;20042;-83
2023/07/27 01:41:59;;;;;;;6.38;5.10;;;;;;;11.47;100.00;100320.78;4936635;29;20424;-82
2023/07/27 01:44:29;;;;;;;4.82;4.35;;;;;;;11.46;100.00;100320.78;4933627;29;20127;-83
2023/07/27 01:46:58;;;;;;;7.32;4.88;;;;;;;11.49;100.00;100323.38;4932784;29;20075;-82
2023/07/27 01:49:25;;;;;;;8.35;4.78;;;;;;;11.49;100.00;100323.38;4935999;29;20044;-82
2023/07/27 01:51:52;;;;;;;5.95;4.60;;;;;;;11.50;100.00;100311.97;4940154;28;20123;-84
2023/07/27 01:54:19;;;;;;;5.07;4.18;;;;;;;11.52;100.00;100318.91;4946534;28;20138;-83
2023/07/27 01:56:46;;;;;;;6.50;4.65;;;;;;;11.52;100.00;100315.44;4937423;29;20046;-82
2023/07/27 01:59:13;;;;;;;7.60;5.10;;;;;;;11.58;100.00;100312.72;4938507;29;20043;-82
2023/07/27 02:01:42;;;;;;;7.55;6.53;;;;;;;11.61;100.00;100309.16;4923538;29;20051;-82
2023/07/27 02:04:09;;;;;;;7.80;4.97;;;;;;;11.63;100.00;100309.97;4962376;28;20043;-84
2023/07/27 02:06:36;;;;;;;6.05;5.30;;;;;;;11.66;100.00;100300.31;4937910;29;20127;-87
2023/07/27 02:09:02;;;;;;;7.70;5.15;;;;;;;11.74;100.00;100289.69;4945019;29;20119;-82
2023/07/27 02:11:29;;;;;;;6.05;4.75;;;;;;;11.74;100.00;100287.91;4925108;29;20051;-82
2023/07/27 02:14:13;;;;;;;5.65;4.55;;;;;;;11.71;100.00;100281.88;4950929;28;20709;-82
2023/07/27 02:16:47;;;;;;;6.70;4.72;;;;;;;11.67;100.00;100281.06;4949506;28;20095;-81
2023/07/27 02:19:17;;;;;;;5.53;4.78;;;;;;;11.67;100.00;100280.22;4920771;29;20061;-82
2023/07/27 02:21:46;;;;;;;6.00;4.70;;;;;;;11.66;100.00;100276.72;4910065;29;20111;-83
2023/07/27 02:24:14;;;;;;;8.85;4.82;;;;;;;11.65;100.00;100284.63;4936217;29;20494;-84
2023/07/27 02:26:43;;;;;;;9.40;5.38;;;;;;;11.64;100.00;100275.91;4931962;29;20134;-82
2023/07/27 02:29:09;;;;;;;5.60;5.03;;;;;;;11.67;100.00;100283.69;4921129;29;20079;-82
2023/07/27 02:31:36;;;;;;;5.15;4.32;;;;;;;11.71;100.00;100279.25;4926221;29;20052;-85
2023/07/27 02:34:02;;;;;;;7.60;5.20;;;;;;;11.73;100.00;100278.34;4937121;29;20082;-81
2023/07/27 02:36:29;;;;;;;6.63;5.32;;;;;;;11.78;100.00;100267.75;4932537;29;20059;-82
2023/07/27 02:38:55;;;;;;;5.88;4.93;;;;;;;11.83;100.00;100271.13;4935268;29;20043;-85
2023/07/27 02:41:22;;;;;;;7.05;5.10;;;;;;;11.87;100.00;100264.06;4954029;29;20044;-83
2023/07/27 02:43:48;;;;;;;7.10;5.30;;;;;;;11.88;100.00;100263.19;4936873;29;20042;-84
2023/07/27 02:46:15;;;;;;;5.78;4.72;;;;;;;11.90;100.00;100262.25;4937250;29;20126;-82
2023/07/27 02:48:41;;;;;;;6.03;3.72;;;;;;;11.92;100.00;100257.81;4915696;29;20052;-86
2023/07/27 02:51:08;;;;;;;6.65;4.28;;;;;;;11.93;100.00;100256.09;4931692;29;20451;-82
2023/07/27 02:53:33;;;;;;;6.10;4.10;;;;;;;11.94;100.00;100256.94;4936357;29;20165;-83
2023/07/27 02:56:04;;;;;;;5.68;3.97;;;;;;;11.95;100.00;100256.03;4930273;29;20049;-82
2023/07/27 02:58:31;;;;;;;5.47;4.47;;;;;;;11.95;100.00;100242.94;4932356;29;20043;-82
2023/07/27 03:01:00;;;;;;;6.30;4.22;;;;;;;11.94;100.00;100241.19;4937055;29;20087;-87
2023/07/27 03:03:27;;;;;;;5.78;4.13;;;;;;;11.92;100.00;100242.09;4930732;29;20051;-81
2023/07/27 03:05:58;;;;;;;5.10;4.30;;;;;;;11.93;100.00;100240.34;4924329;29;20050;-82
2023/07/27 03:08:26;;;;;;;4.95;4.50;;;;;;;11.93;100.00;100242.97;4933582;29;20047;-83
2023/07/27 03:10:53;;;;;;;7.15;4.13;;;;;;;11.91;100.00;100231.63;4925187;29;20082;-87
2023/07/27 03:13:20;;;;;;;5.32;3.65;;;;;;;11.89;100.00;100230.81;4932353;29;20051;-83
2023/07/27 03:15:46;;;;;;;6.63;4.13;;;;;;;11.89;100.00;100225.56;4949613;28;20462;-83
2023/07/27 03:18:14;;;;;;;7.28;4.13;;;;;;;11.85;100.00;100224.78;4915098;29;20047;-83
2023/07/27 03:20:42;;;;;;;6.13;4.70;;;;;;;11.85;100.00;100218.63;4950003;28;20051;-82
2023/07/27 03:23:09;;;;;;;6.18;4.22;;;;;;;11.87;100.00;100219.50;4958467;28;20063;-82
2023/07/27 03:25:37;;;;;;;7.03;4.63;;;;;;;11.86;100.00;100212.50;4964723;28;20067;-84
2023/07/27 03:28:07;;;;;;;5.85;4.00;;;;;;;11.86;100.00;100215.13;4955163;28;20045;-83
2023/07/27 03:30:36;;;;;;;6.22;4.13;;;;;;;11.86;100.00;100213.41;4972510;28;20047;-82
2023/07/27 03:33:07;;;;;;;9.07;4.32;;;;;;;11.85;100.00;100208.16;4958591;28;20086;-82
2023/07/27 03:35:35;;;;;;;7.10;4.18;;;;;;;11.85;100.00;100209.03;4961229;28;20058;-85
2023/07/27 03:38:03;;;;;;;3.97;3.60;;;;;;;11.85;100.00;100201.16;4954789;28;20042;-83
2023/07/27 03:40:29;;;;;;;3.95;3.60;;;;;;;11.89;100.00;100201.97;4956701;28;20043;-82
2023/07/27 03:42:56;;;;;;;7.93;4.38;;;;;;;11.90;100.00;100206.28;4958655;28;20045;-82
2023/07/27 03:45:22;;;;;;;5.35;4.85;;;;;;;11.91;100.00;100201.03;4941091;28;20054;-83
2023/07/27 03:47:49;;;;;;;6.75;4.68;;;;;;;11.96;100.00;100200.97;4956642;28;20062;-82
2023/07/27 03:50:15;;;;;;;5.18;4.22;;;;;;;12.01;100.00;100199.09;4952525;28;20053;-83
2023/07/27 03:52:42;;;;;;;4.55;4.15;;;;;;;12.06;100.00;100206.88;4948624;28;20039;-83
2023/07/27 03:55:09;;;;;;;5.93;3.85;;;;;;;12.10;100.00;100194.53;4959195;28;20052;-84
2023/07/27 03:57:35;;;;;;;7.18;4.07;;;;;;;12.13;100.00;100189.22;4967117;28;20114;-82
2023/07/27 04:00:03;;;;;;;9.20;4.68;;;;;;;12.19;100.00;100187.31;4968870;28;20708;-83
2023/07/27 04:02:31;;;;;;;6.43;4.10;;;;;;;12.23;100.00;100188.13;4949125;28;20544;-85
2023/07/27 04:04:57;;;;;;;6.00;4.05;;;;;;;12.28;100.00;100188.00;4954407;28;20093;-84
2023/07/27 04:07:24;;;;;;;6.47;4.32;;;;;;;12.31;100.00;100183.56;4954370;28;20035;-83
2023/07/27 04:09:50;;;;;;;4.90;4.03;;;;;;;12.33;100.00;100181.75;4957449;28;20057;-82
2023/07/27 04:12:17;;;;;;;6.88;4.30;;;;;;;12.39;100.00;100168.47;4938191;28;20066;-84
2023/07/27 04:14:44;;;;;;;5.10;3.95;;;;;;;12.45;100.00;100169.22;4956140;28;20049;-85
2023/07/27 04:17:10;;;;;;;5.00;4.00;;;;;;;12.51;100.00;100171.69;4956992;28;20035;-82
2023/07/27 04:19:37;;;;;;;4.85;3.35;;;;;;;12.58;100.00;100179.41;4960034;28;20061;-82
2023/07/27 04:22:03;;;;;;;6.15;3.90;;;;;;;12.69;100.00;100175.63;4955333;28;20121;-82
2023/07/27 04:24:31;;;;;;;4.82;3.40;;;;;;;12.73;100.00;100174.66;4941377;28;20050;-84
2023/07/27 04:26:57;;;;;;;3.70;3.40;;;;;;;12.81;100.00;100166.56;4947778;28;20640;-84
2023/07/27 04:29:24;;;;;;;3.58;3.20;;;;;;;12.87;100.00;100167.28;4955119;28;20042;-83
2023/07/27 04:31:50;;;;;;;5.10;4.10;;;;;;;12.94;100.00;100165.34;4959881;28;20034;-82
2023/07/27 04:34:17;;;;;;;3.95;3.55;;;;;;;13.02;100.00;100165.13;4954882;28;20034;-83
2023/07/27 04:36:47;;;;;;;5.82;4.00;;;;;;;13.10;100.00;100167.56;4953926;28;20043;-83
2023/07/27 04:39:14;;;;;;;4.32;3.95;;;;;;;13.17;100.00;100161.25;4939203;28;20043;-82
2023/07/27 04:41:41;;;;;;;5.00;3.90;;;;;;;13.20;100.00;100161.16;4958552;28;20474;-84
2023/07/27 04:44:07;;;;;;;4.10;3.28;;;;;;;13.23;100.00;100155.78;4949507;28;20039;-81
2023/07/27 04:46:34;;;;;;;6.50;4.50;;;;;;;13.29;100.00;100146.91;4932197;28;20046;-82
2023/07/27 04:49:01;;;;;;;6.22;3.55;;;;;;;13.33;100.00;100151.16;4939459;28;20058;-82
2023/07/27 04:51:28;;;;;;;6.82;3.78;;;;;;;13.37;100.00;100151.03;4957478;28;20042;-82
2023/07/27 04:53:54;;;;;;;4.53;3.50;;;;;;;13.43;100.00;100146.53;4968231;28;20113;-83
2023/07/27 04:56:21;;;;;;;7.93;3.55;;;;;;;13.45;100.00;100144.72;4941597;28;20077;-83
2023/07/27 04:58:47;;;;;;;3.70;3.40;;;;;;;13.47;100.00;100143.78;4935287;28;20042;-84
2023/07/27 05:01:14;;;;;;;4.55;2.92;;;;;;;13.52;100.00;100144.50;4966717;28;20034;-85
2023/07/27 05:03:40;;;;;;;6.05;3.25;;;;;;;13.61;100.00;100139.88;4951133;28;20045;-82
2023/07/27 05:06:07;;;;;;;2.72;2.53;;;;;;;13.63;100.00;100132.81;4938000;28;20460;-87
2023/07/27 05:08:33;;;;;;;4.25;3.33;;;;;;;13.65;100.00;100136.22;4951149;28;20143;-84
2023/07/27 05:11:03;;;;;;;3.65;3.08;;;;;;;13.70;100.00;100150.09;4957449;28;20034;-85
2023/07/27 05:13:29;;;;;;;4.75;2.55;;;;;;;13.75;100.00;100150.81;4937196;28;20081;-87
2023/07/27 05:15:56;;;;;;;5.30;3.42;;;;;;;13.78;100.00;100155.13;4954207;28;20057;-83
2023/07/27 05:18:22;;;;;;;3.78;3.13;;;;;;;13.79;100.00;100152.44;4967364;28;20047;-87
2023/07/27 05:20:49;;;;;;;6.07;3.58;;;;;;;13.78;100.00;100145.50;4954005;28;20455;-83
2023/07/27 05:23:15;;;;;;;3.20;2.67;;;;;;;13.80;100.00;100148.06;4966130;28;20196;-84
2023/07/27 05:25:42;;;;;;;3.33;2.97;;;;;;;13.80;100.00;100156.81;4968518;28;20066;-84
2023/07/27 05:28:09;;;;;;;3.60;3.30;;;;;;;13.79;100.00;100160.34;4952784;28;20065;-84
2023/07/27 05:30:35;;;;;;;4.22;2.85;;;;;;;13.79;100.00;100160.34;4937029;28;20496;-85
2023/07/27 05:33:02;;;;;;;4.05;3.30;;;;;;;13.84;100.00;100163.69;4970102;28;20067;-85
2023/07/27 05:35:29;;;;;;;2.80;2.42;;;;;;;13.89;100.00;100167.06;4953557;28;20055;-84
2023/07/27 05:37:55;;;;;;;3.85;2.97;;;;;;;13.92;100.00;100163.47;4946969;28;20144;-86
2023/07/27 05:40:22;;;;;;;3.15;2.88;;;;;;;13.92;100.00;100154.72;4945878;28;20134;-88
2023/07/27 05:42:48;;;;;;;3.15;2.60;;;;;;;13.92;100.00;100158.22;4947908;28;20040;-83
2023/07/27 05:45:15;;;;;;;3.25;2.75;;;;;;;13.92;100.00;100160.84;4952647;28;20039;-83
2023/07/27 05:47:41;;;;;;;5.55;4.60;;;;;;;13.95;100.00;100154.63;4959261;28;20078;-83
2023/07/27 05:50:09;;;;;;;3.13;2.67;;;;;;;13.99;100.00;100149.22;4938520;29;20045;-83
2023/07/27 05:52:36;;;;;;;2.90;2.67;;;;;;;14.06;100.00;100148.09;4964889;28;20039;-83
2023/07/27 05:55:04;;;;;;;3.95;2.63;;;;;;;14.14;100.00;100149.66;4954863;28;20122;-83
2023/07/27 05:57:31;;;;;;;3.65;2.60;;;;;;;14.23;100.00;100139.66;4939157;28;20042;-82
2023/07/27 05:59:57;;;;;;;4.13;3.20;;;;;;;14.35;100.00;100145.47;4950494;28;20174;-83
2023/07/27 06:02:24;;;;;;;2.85;2.63;;;;;;;14.41;100.00;100150.53;4944757;28;20074;-84
2023/07/27 06:04:51;;;;;;;3.38;2.85;;;;;;;14.44;100.00;100152.19;4974269;28;20042;-84
2023/07/27 06:07:17;;;;;;;3.38;2.53;;;;;;;14.49;100.00;100153.75;4942053;28;20488;-83
2023/07/27 06:09:44;;;;;;;4.40;3.22;;;;;;;14.55;100.00;100157.97;4952796;29;20471;-82
2023/07/27 06:12:12;;;;;;;4.47;2.45;;;;;;;14.60;100.00;100148.16;4955192;29;20039;-83
2023/07/27 06:14:40;;;;;;;2.45;2.25;;;;;;;14.64;100.00;100149.81;4948057;28;20070;-82
2023/07/27 06:17:07;;;;;;;3.83;2.70;;;;;;;14.66;100.00;100150.59;4956770;28;20106;-81
2023/07/27 06:19:34;;;;;;;2.80;2.53;;;;;;;14.65;100.00;100150.66;4940763;28;20540;-84
2023/07/27 06:22:01;;;;;;;4.57;2.60;;;;;;;14.64;100.00;100144.53;4957120;28;20053;-82
2023/07/27 06:24:28;;;;;;;3.50;2.67;;;;;;;14.67;100.00;100144.41;4941224;28;20085;-83
2023/07/27 06:26:55;;;;;;;3.55;2.53;;;;;;;14.70;100.00;100131.13;4941810;28;20047;-85
2023/07/27 06:29:21;;;;;;;3.33;2.65;;;;;;;14.74;100.00;100128.41;4958501;28;20122;-82
2023/07/27 06:31:49;;;;;;;4.32;3.05;;;;;;;14.79;100.00;100129.09;4973792;28;20040;-83
2023/07/27 06:34:16;;;;;;;3.05;2.75;;;;;;;14.91;100.00;100141.00;4957262;28;20050;-82
2023/07/27 06:36:42;;;;;;;2.72;2.50;;;;;;;15.00;100.00;100130.13;4972898;28;20485;-82
2023/07/27 06:39:12;;;;;;;5.03;2.50;;;;;;;15.08;100.00;100133.34;4942126;28;20070;-82
2023/07/27 06:41:39;;;;;;;4.63;3.05;;;;;;;15.18;100.00;100131.22;4960615;28;20073;-83
2023/07/27 06:44:06;;;;;;;3.13;2.80;;;;;;;15.29;100.00;100128.19;4960867;28;20102;-82
2023/07/27 06:46:32;;;;;;;2.47;2.10;;;;;;;15.38;100.00;100127.84;4969156;28;20062;-86
2023/07/27 06:48:59;;;;;;;3.85;2.60;;;;;;;15.51;100.00;100126.50;4952525;28;20066;-83
2023/07/27 06:51:26;;;;;;;3.08;2.58;;;;;;;15.55;100.00;100120.19;4944274;28;20129;-83
2023/07/27 06:53:53;;;;;;;4.60;3.03;;;;;;;15.60;99.85;100127.06;4933289;29;20039;-83
2023/07/27 06:56:20;;;;;;;3.03;2.63;;;;;;;15.57;99.74;100122.75;4957983;28;20066;-83
2023/07/27 06:58:47;;;;;;;2.85;2.63;;;;;;;15.61;99.61;100120.88;4937363;29;20086;-83
2023/07/27 07:01:13;;;;;;;2.10;2.00;;;;;;;15.56;98.31;100123.66;4929712;29;20093;-82
2023/07/27 07:03:40;;;;;;;4.38;2.50;;;;;;;15.49;98.39;100122.19;4943800;28;20040;-84
2023/07/27 07:06:07;;;;;;;3.05;2.15;;;;;;;15.44;99.00;100122.34;4957231;28;20047;-82
2023/07/27 07:08:33;;;;;;;3.97;2.20;;;;;;;15.39;99.55;100127.78;4946219;28;20085;-82
2023/07/27 07:11:00;;;;;;;2.63;2.42;;;;;;;15.36;100.00;100119.16;4945804;28;20037;-85
2023/07/27 07:13:29;;;;;;;2.22;2.00;;;;;;;15.33;100.00;100120.13;4947630;28;20078;-83
2023/07/27 07:15:55;;;;;;;2.72;2.30;;;;;;;15.31;100.00;100116.66;4971716;28;20119;-82
2023/07/27 07:18:22;;;;;;;2.88;2.45;;;;;;;15.26;100.00;100110.72;4954988;28;20122;-84
2023/07/27 07:20:49;;;;;;;4.03;2.80;;;;;;;15.24;100.00;100106.41;4960335;28;20059;-83
2023/07/27 07:23:16;;;;;;;6.18;2.47;;;;;;;15.21;100.00;100120.56;4935609;29;20126;-83
2023/07/27 07:25:43;;;;;;;3.45;1.88;;;;;;;15.19;100.00;100115.34;4959617;28;20042;-84
2023/07/27 07:28:10;;;;;;;5.63;2.65;;;;;;;15.23;100.00;100108.19;4979626;28;20109;-83
2023/07/27 07:30:41;;;;;;;1.95;1.83;;;;;;;15.29;100.00;100107.09;4981993;28;20043;-82
2023/07/27 07:33:09;;;;;;;5.07;2.83;;;;;;;15.30;100.00;100111.47;4961190;28;20445;-82
2023/07/27 07:35:38;;;;;;;2.90;2.50;;;;;;;15.32;100.00;100104.38;4959568;28;20123;-82
2023/07/27 07:38:06;;;;;;;4.07;2.30;;;;;;;15.38;100.00;100102.34;4949947;28;20134;-82
2023/07/27 07:40:34;;;;;;;3.20;2.60;;;;;;;15.43;100.00;100098.69;4956419;28;20129;-82
2023/07/27 07:43:00;;;;;;;3.15;2.60;;;;;;;15.43;100.00;100096.03;4983461;28;20047;-81
2023/07/27 07:45:29;;;;;;;2.95;2.28;;;;;;;15.35;100.00;100093.69;4960826;28;20486;-82
2023/07/27 07:47:56;;;;;;;2.78;2.05;;;;;;;15.29;100.00;100092.16;4944980;28;20034;-83
2023/07/27 07:50:24;;;;;;;5.13;2.30;;;;;;;15.23;100.00;100087.09;4962362;28;20051;-82
2023/07/27 07:52:50;;;;;;;2.30;2.05;;;;;;;15.22;100.00;100085.38;4949907;28;20047;-86
2023/07/27 07:55:17;;;;;;;2.90;2.60;;;;;;;15.20;100.00;100085.44;4939544;28;20438;-83
2023/07/27 07:57:43;;;;;;;7.95;2.40;;;;;;;15.24;100.00;100078.28;4941555;28;20137;-83
2023/07/27 08:00:11;;;;;;;7.35;2.90;;;;;;;15.30;100.00;100074.53;4956574;28;20048;-85
2023/07/27 08:02:38;;;;;;;2.25;2.05;;;;;;;15.34;100.00;100070.88;4941264;28;20046;-89
2023/07/27 08:05:05;;;;;;;3.22;2.15;;;;;;;15.41;100.00;100064.47;4952394;28;20130;-84
2023/07/27 08:07:32;;;;;;;2.15;1.92;;;;;;;15.51;100.00;100062.31;4941706;28;20130;-86
2023/07/27 08:09:59;;;;;;;2.67;2.47;;;;;;;15.53;100.00;100055.19;4957824;28;20034;-83
2023/07/27 08:12:25;;;;;;;3.38;2.13;;;;;;;15.49;100.00;100043.91;4951449;28;20038;-85
2023/07/27 08:15:02;;;;;;;3.88;2.97;;;;;;;15.43;100.00;100041.50;4959361;28;20046;-85
2023/07/27 08:17:32;;;;;;;2.95;2.45;;;;;;;15.44;100.00;100030.03;4972552;28;20053;-85
2023/07/27 08:19:58;;;;;;;4.88;2.92;;;;;;;15.43;100.00;100025.69;4952118;28;20057;-85
2023/07/27 08:22:25;;;;;;;3.38;2.92;;;;;;;15.43;100.00;100025.69;4949570;28;20573;-84
2023/07/27 08:24:52;;;;;;;4.13;2.60;;;;;;;15.49;100.00;100012.25;4945976;28;20046;-85
2023/07/27 08:27:33;;;;;;;;;;;;;;;;;;;;;
2023/07/27 08:30:04;;;;;;;5.28;3.10;;;;;;;15.50;100.00;100011.34;4942280;28;20077;-83
2023/07/27 08:32:31;;;;;;;3.85;2.53;;;;;;;15.41;100.00;100000.28;4964862;28;20480;-87
2023/07/27 08:35:00;;;;;;;2.80;2.60;;;;;;;15.40;100.00;99999.44;4925279;29;20119;-82
2023/07/27 08:37:33;;;;;;;4.10;2.97;;;;;;;15.45;100.00;99994.84;4940505;28;20113;-84
2023/07/27 08:40:00;;;;;;;4.07;3.10;;;;;;;15.43;100.00;99983.47;4962713;28;20094;-89
2023/07/27 08:42:27;;;;;;;3.58;2.72;;;;;;;15.42;100.00;99980.91;4937432;28;20038;-83
2023/07/27 08:44:54;;;;;;;5.13;3.10;;;;;;;15.37;100.00;99987.22;4948714;28;20478;-83
2023/07/27 08:47:22;;;;;;;5.32;3.10;;;;;;;15.38;100.00;99990.72;4941427;28;20083;-84
2023/07/27 08:49:50;;;;;;;3.92;2.80;;;;;;;15.37;100.00;99989.00;4941076;28;20445;-83
2023/07/27 08:52:16;;;;;;;4.13;3.22;;;;;;;15.41;100.00;99974.78;4953185;28;20466;-83
2023/07/27 08:54:43;;;;;;;5.05;2.72;;;;;;;15.47;100.00;99966.59;4956508;28;20086;-84
2023/07/27 08:57:09;;;;;;;4.22;2.60;;;;;;;15.44;100.00;99953.56;4957233;28;20137;-84
2023/07/27 08:59:36;;;;;;;3.83;2.75;;;;;;;15.54;100.00;99954.06;4953818;29;20081;-84
2023/07/27 09:02:03;;;;;;;2.50;2.30;;;;;;;15.61;100.00;99957.28;4953744;28;20029;-83
2023/07/27 09:04:29;;;;;;;3.13;2.65;;;;;;;15.70;100.00;99962.19;4943412;28;20138;-82
2023/07/27 09:06:56;;;;;;;2.85;2.65;;;;;;;15.71;100.00;99953.34;4949590;29;20039;-83
2023/07/27 09:09:25;;;;;;;4.07;3.00;;;;;;;15.87;100.00;99958.88;4962053;28;20066;-83
2023/07/27 09:11:54;;;;;;;4.15;3.17;;;;;;;16.02;100.00;99955.59;4956459;28;20073;-86
2023/07/27 09:14:21;;;;;;;3.88;2.28;;;;;;;16.17;100.00;99954.06;4970769;28;20050;-83
2023/07/27 09:16:50;;;;;;;5.55;3.55;;;;;;;16.17;100.00;99961.97;4957200;28;20090;-83
2023/07/27 09:19:18;;;;;;;3.65;2.45;;;;;;;16.27;100.00;99951.88;4936922;28;20038;-84
2023/07/27 09:21:48;;;;;;;7.50;2.78;;;;;;;16.32;100.00;99941.97;4959129;28;20047;-84
2023/07/27 09:24:19;;;;;;;3.67;2.42;;;;;;;16.26;100.00;99952.81;4948241;28;20035;-83
2023/07/27 09:26:53;;;;;;;3.90;2.95;;;;;;;16.30;100.00;99951.75;4952967;28;20032;-85
2023/07/27 09:29:22;;;;;;;2.05;1.85;;;;;;;16.34;100.00;99949.81;4969314;28;20061;-84
2023/07/27 09:31:54;;;;;;;4.88;2.72;;;;;;;16.44;100.00;99956.41;4958065;28;20437;-84
2023/07/27 09:34:21;;;;;;;3.70;2.70;;;;;;;16.44;100.00;99947.63;4939371;28;20039;-85
2023/07/27 09:36:48;;;;;;;3.63;2.65;;;;;;;16.46;100.00;99949.25;4954754;28;20061;-83
2023/07/27 09:39:15;;;;;;;2.90;2.70;;;;;;;16.34;100.00;99941.91;4952368;29;20039;-84
2023/07/27 09:41:47;;;;;;;3.55;2.95;;;;;;;16.10;100.00;99941.19;4953524;28;20118;-85
2023/07/27 09:44:18;;;;;;;4.82;3.42;;;;;;;15.93;100.00;99942.78;4970946;28;20034;-83
2023/07/27 09:46:47;;;;;;;5.72;3.42;;;;;;;15.78;100.00;99933.69;4941374;28;20043;-84
2023/07/27 09:49:15;;;;;;;3.30;2.90;;;;;;;15.54;100.00;99930.31;4953642;28;20039;-84
2023/07/27 09:51:44;;;;;;;4.80;3.58;;;;;;;15.39;100.00;99932.63;4942293;28;20133;-88
2023/07/27 09:54:13;;;;;;;5.40;2.95;;;;;;;15.24;100.00;99916.56;4949477;28;20473;-84
2023/07/27 09:56:40;;;;;;;7.35;3.58;;;;;;;15.08;100.00;99919.81;4946159;28;20053;-88
2023/07/27 09:59:08;;;;;;;3.20;2.85;;;;;;;14.96;100.00;99915.88;4945860;28;20134;-85
2023/07/27 10:01:35;;;;;;;6.55;3.20;;;;;;;14.87;100.00;99911.84;4949864;28;20043;-85
2023/07/27 10:04:02;;;;;;;5.95;3.72;;;;;;;14.83;100.00;99904.09;4937576;28;20470;-83
2023/07/27 10:06:33;;;;;;;5.13;3.63;;;;;;;14.82;100.00;99905.03;4953864;28;20053;-82
2023/07/27 10:09:20;;;;;;;4.45;3.35;;;;;;;14.87;100.00;99897.81;4952390;28;20074;-84
2023/07/27 10:11:57;;;;;;;3.70;3.17;;;;;;;14.83;100.00;99898.84;4971059;28;20042;-86
2023/07/27 10:14:27;;;;;;;5.72;3.20;;;;;;;14.80;100.00;99904.25;4954335;28;20031;-84
2023/07/27 10:17:07;;;;;;;4.93;3.60;;;;;;;14.85;100.00;99889.97;4937068;28;20050;-84
2023/07/27 10:19:40;;;;;;;4.65;2.92;;;;;;;14.81;100.00;99890.13;4950960;28;20500;-83
2023/07/27 10:22:08;;;;;;;4.68;3.33;;;;;;;14.76;100.00;99886.81;4959448;28;20049;-83
2023/07/27 10:24:56;;;;;;;4.13;3.63;;;;;;;14.77;100.00;99889.41;4981076;28;20043;-83
2023/07/27 10:27:23;;;;;;;3.42;2.60;;;;;;;14.75;100.00;99885.97;4960919;28;20042;-83
2023/07/27 10:30:10;;;;;;;4.13;2.88;;;;;;;14.83;100.00;99886.50;4951315;28;20043;-82
2023/07/27 10:32:37;;;;;;;3.75;3.15;;;;;;;14.86;100.00;99873.25;4976976;28;20043;-83
2023/07/27 10:35:08;;;;;;;6.47;3.80;;;;;;;14.91;100.00;99865.13;4958529;28;20055;-84
2023/07/27 10:37:54;;;;;;;4.68;3.70;;;;;;;14.93;100.00;99865.94;4943339;28;20038;-85
2023/07/27 10:40:31;;;;;;;5.15;3.90;;;;;;;14.91;100.00;99864.28;4942452;28;20450;-84
2023/07/27 10:42:59;;;;;;;4.85;3.70;;;;;;;14.77;100.00;99862.19;4960430;28;20059;-86
2023/07/27 10:45:29;;;;;;;4.13;3.50;;;;;;;14.58;100.00;99857.59;4958102;28;20035;-83
2023/07/27 10:47:59;;;;;;;6.03;3.60;;;;;;;14.51;100.00;99851.72;4959116;28;20047;-83
2023/07/27 10:50:25;;;;;;;5.05;3.58;;;;;;;14.45;100.00;99851.94;4963050;28;20066;-83
2023/07/27 10:52:53;;;;;;;6.50;4.68;;;;;;;14.45;100.00;99849.31;4959363;28;20034;-83
2023/07/27 10:55:21;;;;;;;4.55;4.00;;;;;;;14.50;100.00;99849.16;4938525;28;20050;-84
2023/07/27 10:57:48;;;;;;;4.50;4.10;;;;;;;14.48;100.00;99843.06;4943740;28;20047;-86
2023/07/27 11:00:16;;;;;;;4.18;3.42;;;;;;;14.52;100.00;99842.91;4958662;28;20039;-86
2023/07/27 11:02:43;;;;;;;6.22;3.88;;;;;;;14.55;100.00;99837.50;4954643;28;20053;-84
2023/07/27 11:05:10;;;;;;;4.32;3.47;;;;;;;14.63;100.00;99841.63;4955196;28;20064;-83
2023/07/27 11:07:42;;;;;;;4.35;3.92;;;;;;;14.58;100.00;99836.53;4970384;28;20058;-82
2023/07/27 11:10:15;;;;;;;4.05;3.10;;;;;;;14.56;100.00;99835.72;4952749;28;20042;-84
2023/07/27 11:12:50;;;;;;;5.57;3.13;;;;;;;14.54;100.00;99830.50;4951167;28;20049;-86
2023/07/27 11:15:29;;;;;;;3.05;2.78;;;;;;;14.55;100.00;99820.88;4962848;28;20046;-85
2023/07/27 11:17:59;;;;;;;3.10;2.80;;;;;;;14.64;100.00;99823.16;4954054;28;20046;-85
2023/07/27 11:20:28;;;;;;;2.75;2.55;;;;;;;14.68;100.00;99821.28;4971199;28;20051;-83
2023/07/27 11:22:57;;;;;;;3.30;2.50;;;;;;;14.76;100.00;99824.47;4972846;28;20162;-87
2023/07/27 11:25:24;;;;;;;3.88;2.30;;;;;;;14.79;100.00;99815.56;4964022;28;20039;-86
2023/07/27 11:27:53;;;;;;;3.15;2.78;;;;;;;14.81;100.00;99806.69;4955109;28;20102;-84
2023/07/27 11:30:21;;;;;;;7.43;2.40;;;;;;;14.84;100.00;99806.56;4956601;28;20117;-82